createdAt,value
2017-10-26T00:00:52.502Z,102534.87
2017-10-26T00:03:21.608Z,102547.38
2017-10-26T00:05:50.720Z,102546.13
2017-10-26T00:08:19.057Z,102546.13
2017-10-26T00:10:47.397Z,102539.98
2017-10-26T00:13:15.727Z,102540.16
2017-10-26T00:15:44.048Z,102539.33
2017-10-26T00:18:12.397Z,102531.69
2017-10-26T00:20:40.715Z,102533.27
2017-10-26T00:23:09.030Z,102528.41
2017-10-26T00:25:37.380Z,102525.78
2017-10-26T00:28:05.694Z,102520.73
2017-10-26T00:30:34.053Z,102522.91
2017-10-26T00:33:02.375Z,102517.45
2017-10-26T00:35:30.694Z,102510.92
2017-10-26T00:37:59.770Z,102499.77
2017-10-26T00:40:28.146Z,102502.36
2017-10-26T00:42:57.997Z,102499.34
2017-10-26T00:45:26.372Z,102510.92
2017-10-26T00:47:54.711Z,102513.70
2017-10-26T00:50:23.035Z,102500.18
2017-10-26T00:52:52.125Z,102506.15
2017-10-26T00:55:21.231Z,102509.16
2017-10-26T00:57:49.579Z,102527.54
2017-10-26T01:00:17.907Z,102525.78
2017-10-26T01:02:46.235Z,102533.24
2017-10-26T01:05:14.578Z,102534.41
2017-10-26T01:07:42.933Z,102523.81
2017-10-26T01:10:12.079Z,102520.83
2017-10-26T01:12:40.449Z,102518.88
2017-10-26T01:15:08.829Z,102511.90
2017-10-26T01:17:37.200Z,102506.34
2017-10-26T01:20:07.455Z,102505.66
2017-10-26T01:22:35.850Z,102504.73
2017-10-26T01:25:04.257Z,102496.34
2017-10-26T01:27:33.369Z,102498.53
2017-10-26T01:30:02.480Z,102497.96
2017-10-26T01:32:31.581Z,102503.66
2017-10-26T01:34:59.936Z,102496.62
2017-10-26T01:37:29.144Z,102485.55
2017-10-26T01:39:58.243Z,102480.27
2017-10-26T01:42:26.547Z,102485.22
2017-10-26T01:44:54.847Z,102494.63
2017-10-26T01:47:23.176Z,102500.17
2017-10-26T01:49:51.478Z,102504.09
2017-10-26T01:52:20.578Z,102515.02
2017-10-26T01:54:49.735Z,102515.94
2017-10-26T01:57:18.074Z,102510.56
2017-10-26T01:59:46.403Z,102507.28
2017-10-26T02:02:14.754Z,102505.61
2017-10-26T02:04:43.070Z,102498.98
2017-10-26T02:07:11.412Z,102499.34
2017-10-26T02:09:39.760Z,102497.67
2017-10-26T02:12:08.837Z,102505.82
2017-10-26T02:14:37.182Z,102511.28
2017-10-26T02:17:05.502Z,102515.31
2017-10-26T02:19:33.843Z,102520.17
2017-10-26T02:22:02.196Z,102520.68
2017-10-26T02:24:31.281Z,102521.42
2017-10-26T02:26:59.624Z,102515.45
2017-10-26T02:29:45.565Z,102506.72
2017-10-26T02:32:14.656Z,102502.41
2017-10-26T02:34:43.758Z,102505.43
2017-10-26T02:37:12.868Z,102494.69
2017-10-26T02:39:41.196Z,102494.56
2017-10-26T02:42:09.515Z,102489.91
2017-10-26T02:44:38.586Z,102488.16
2017-10-26T02:47:06.927Z,102488.06
2017-10-26T02:49:35.246Z,102495.38
2017-10-26T02:52:03.605Z,102502.51
2017-10-26T02:54:31.955Z,102513.94
2017-10-26T02:57:00.276Z,102513.19
2017-10-26T02:59:28.634Z,102509.67
2017-10-26T03:01:56.940Z,102514.11
2017-10-26T03:04:25.287Z,102503.28
2017-10-26T03:06:53.618Z,102495.88
2017-10-26T03:09:21.941Z,102482.13
2017-10-26T03:11:50.268Z,102476.67
2017-10-26T03:14:18.594Z,102464.77
2017-10-26T03:16:47.693Z,102479.80
2017-10-26T03:19:16.778Z,102483.17
2017-10-26T03:21:45.118Z,102473.63
2017-10-26T03:24:13.440Z,102476.62
2017-10-26T03:26:41.773Z,102477.13
2017-10-26T03:29:10.174Z,102480.23
2017-10-26T03:31:38.503Z,102483.92
2017-10-26T03:34:07.568Z,102499.47
2017-10-26T03:36:35.903Z,102499.32
2017-10-26T03:39:04.231Z,102503.52
2017-10-26T03:41:32.538Z,102499.67
2017-10-26T03:44:01.614Z,102487.36
2017-10-26T03:46:29.962Z,102487.89
2017-10-26T03:48:58.284Z,102484.25
2017-10-26T03:51:26.654Z,102491.39
2017-10-26T03:53:54.972Z,102483.87
2017-10-26T03:56:24.065Z,102483.87
2017-10-26T03:58:53.143Z,102482.53
2017-10-26T04:01:21.484Z,102475.61
2017-10-26T04:03:49.801Z,102467.37
2017-10-26T04:06:18.126Z,102462.09
2017-10-26T04:08:46.439Z,102460.66
2017-10-26T04:11:14.786Z,102462.84
2017-10-26T04:13:43.092Z,102470.39
2017-10-26T04:16:11.388Z,102469.28
2017-10-26T04:18:39.700Z,102470.86
2017-10-26T04:21:08.824Z,102467.25
2017-10-26T04:23:37.918Z,102467.76
2017-10-26T04:26:07.014Z,102469.52
2017-10-26T04:28:35.341Z,102466.33
2017-10-26T04:31:03.733Z,102466.83
2017-10-26T04:33:32.075Z,102468.09
2017-10-26T04:36:00.386Z,102467.67
2017-10-26T04:38:28.708Z,102473.13
2017-10-26T04:40:57.048Z,102474.56
2017-10-26T04:43:25.368Z,102468.36
2017-10-26T04:45:53.698Z,102471.55
2017-10-26T04:48:22.029Z,102472.47
2017-10-26T04:50:50.358Z,102469.28
2017-10-26T04:53:18.668Z,102466.00
2017-10-26T04:55:46.976Z,102459.28
2017-10-26T04:58:15.297Z,102454.75
2017-10-26T05:00:43.625Z,102458.27
2017-10-26T05:03:11.960Z,102462.72
2017-10-26T05:05:40.284Z,102455.77
2017-10-26T05:08:08.611Z,102463.23
2017-10-26T05:10:36.945Z,102459.02
2017-10-26T05:13:05.266Z,102461.61
2017-10-26T05:15:34.365Z,102452.72
2017-10-26T05:18:02.693Z,102461.94
2017-10-26T05:20:31.006Z,102468.47
2017-10-26T05:22:59.329Z,102462.89
2017-10-26T05:25:27.840Z,102459.28
2017-10-26T05:27:56.175Z,102457.76
2017-10-26T05:30:25.300Z,102457.76
2017-10-26T05:32:53.625Z,102457.34
2017-10-26T05:35:21.954Z,102460.86
2017-10-26T05:37:50.284Z,102471.92
2017-10-26T05:40:18.599Z,102478.97
2017-10-26T05:42:47.684Z,102479.72
2017-10-26T05:45:16.768Z,102477.27
2017-10-26T05:47:45.090Z,102477.41
2017-10-26T05:50:13.431Z,102480.75
2017-10-26T05:52:41.769Z,102483.31
2017-10-26T05:55:10.109Z,102489.67
2017-10-26T05:57:39.969Z,102482.69
2017-10-26T06:00:08.289Z,102480.74
2017-10-26T06:02:36.632Z,102486.35
2017-10-26T06:05:05.001Z,102483.48
2017-10-26T06:07:33.309Z,102481.63
2017-10-26T06:10:01.664Z,102481.81
2017-10-26T06:12:29.970Z,102483.16
2017-10-26T06:14:58.339Z,102476.95
2017-10-26T06:17:26.734Z,102481.13
2017-10-26T06:19:55.103Z,102475.36
2017-10-26T06:22:23.475Z,102471.38
2017-10-26T06:24:51.805Z,102473.28
2017-10-26T06:27:20.137Z,102470.75
2017-10-26T06:29:48.469Z,102475.34
2017-10-26T06:32:16.779Z,102481.66
2017-10-26T06:34:45.869Z,102479.44
2017-10-26T06:37:14.176Z,102476.38
2017-10-26T06:39:42.515Z,102479.51
2017-10-26T06:42:10.848Z,102488.78
2017-10-26T06:44:40.013Z,102489.94
2017-10-26T06:47:08.332Z,102495.37
2017-10-26T06:49:36.655Z,102502.25
2017-10-26T06:52:05.001Z,102501.47
2017-10-26T06:54:33.331Z,102497.06
2017-10-26T06:57:01.668Z,102498.22
2017-10-26T06:59:30.036Z,102493.27
2017-10-26T07:01:58.353Z,102491.31
2017-10-26T07:04:26.705Z,102487.37
2017-10-26T07:06:55.035Z,102494.52
2017-10-26T07:09:23.336Z,102498.04
2017-10-26T07:11:52.437Z,102504.67
2017-10-26T07:14:21.545Z,102515.93
2017-10-26T07:16:50.663Z,102524.92
2017-10-26T07:19:18.991Z,102526.54
2017-10-26T07:21:47.334Z,102534.42
2017-10-26T07:24:15.643Z,102535.45
2017-10-26T07:26:44.005Z,102540.74
2017-10-26T07:29:12.329Z,102530.31
2017-10-26T07:31:40.673Z,102532.68
2017-10-26T07:34:09.011Z,102531.98
2017-10-26T07:36:38.104Z,102535.74
2017-10-26T07:39:07.183Z,102539.78
2017-10-26T07:41:35.521Z,102537.23
2017-10-26T07:44:03.839Z,102536.35
2017-10-26T07:46:34.775Z,102532.84
2017-10-26T07:49:03.085Z,102543.74
2017-10-26T07:51:32.184Z,102542.53
2017-10-26T07:54:01.317Z,102531.18
2017-10-26T07:56:29.722Z,102528.72
2017-10-26T07:58:58.066Z,102530.98
2017-10-26T08:01:26.365Z,102526.96
2017-10-26T08:03:54.695Z,102515.97
2017-10-26T08:06:23.742Z,102514.77
2017-10-26T08:08:52.060Z,102524.00
2017-10-26T08:11:20.391Z,102511.38
2017-10-26T08:13:48.714Z,102511.42
2017-10-26T08:16:17.053Z,102517.13
2017-10-26T08:18:45.388Z,102519.36
2017-10-26T08:21:13.709Z,102520.39
2017-10-26T08:23:42.043Z,102528.69
2017-10-26T08:26:10.365Z,102538.05
2017-10-26T08:28:39.475Z,102548.58
2017-10-26T08:31:07.876Z,102544.65
2017-10-26T08:33:36.218Z,102548.63
2017-10-26T08:36:05.308Z,102545.89
2017-10-26T08:38:33.647Z,102546.83
2017-10-26T08:41:01.998Z,102549.42
2017-10-26T08:43:31.095Z,102552.02
2017-10-26T08:46:00.188Z,102551.09
2017-10-26T08:48:29.279Z,102543.66
2017-10-26T08:50:58.380Z,102552.29
2017-10-26T08:53:27.491Z,102548.06
2017-10-26T08:55:56.600Z,102551.91
2017-10-26T08:58:25.025Z,102555.30
2017-10-26T09:00:53.346Z,102555.30
2017-10-26T09:03:22.450Z,102555.91
2017-10-26T09:05:51.574Z,102558.60
2017-10-26T09:08:19.896Z,102551.97
2017-10-26T09:10:48.214Z,102558.32
2017-10-26T09:13:17.302Z,102547.08
2017-10-26T09:15:45.620Z,102548.98
2017-10-26T09:18:13.943Z,102535.14
2017-10-26T09:20:42.248Z,102536.62
2017-10-26T09:23:11.350Z,102535.95
2017-10-26T09:25:39.676Z,102529.38
2017-10-26T09:28:07.989Z,102535.52
2017-10-26T09:30:36.307Z,102521.18
2017-10-26T09:33:10.797Z,102514.86
2017-10-26T09:35:39.121Z,102507.47
2017-10-26T09:38:07.445Z,102507.20
2017-10-26T09:40:35.770Z,102496.77
2017-10-26T09:43:04.867Z,102504.77
2017-10-26T09:45:33.231Z,102498.30
2017-10-26T09:48:01.556Z,102504.42
2017-10-26T09:50:29.884Z,102504.86
2017-10-26T09:52:58.199Z,102509.47
2017-10-26T09:55:26.527Z,102500.75
2017-10-26T09:57:54.854Z,102510.73
2017-10-26T10:00:23.936Z,102509.91
2017-10-26T10:02:52.256Z,102504.00
2017-10-26T10:05:20.572Z,102507.95
2017-10-26T10:07:48.980Z,102523.41
2017-10-26T10:10:18.070Z,102535.49
2017-10-26T10:12:46.412Z,102539.02
2017-10-26T10:15:14.758Z,102521.80
2017-10-26T10:17:43.832Z,102524.80
2017-10-26T10:20:12.166Z,102538.61
2017-10-26T10:22:40.502Z,102530.84
2017-10-26T10:25:08.856Z,102533.66
2017-10-26T10:27:37.189Z,102527.38
2017-10-26T10:30:05.538Z,102518.55
2017-10-26T10:32:33.874Z,102515.87
2017-10-26T10:35:02.220Z,102502.78
2017-10-26T10:37:30.550Z,102501.37
2017-10-26T10:39:58.863Z,102503.98
2017-10-26T10:42:27.185Z,102506.66
2017-10-26T10:44:55.511Z,102501.78
2017-10-26T10:47:23.828Z,102498.67
2017-10-26T10:49:52.119Z,102502.51
2017-10-26T10:52:21.970Z,102497.31
2017-10-26T10:54:50.259Z,102502.81
2017-10-26T10:57:18.611Z,102502.71
2017-10-26T11:02:50.661Z,102510.02
2017-10-26T11:05:19.735Z,102521.01
2017-10-26T11:07:48.097Z,102528.70
2017-10-26T11:10:17.019Z,102517.71
2017-10-26T11:12:46.220Z,102508.45
2017-10-26T11:15:14.549Z,102516.77
2017-10-26T11:17:42.887Z,102513.86
2017-10-26T11:20:11.226Z,102510.23
2017-10-26T11:22:39.692Z,102514.48
2017-10-26T11:25:07.998Z,102508.16
2017-10-26T11:27:36.322Z,102512.21
2017-10-26T11:30:04.642Z,102508.66
2017-10-26T11:32:33.131Z,102505.97
2017-10-26T11:35:01.446Z,102502.11
2017-10-26T11:37:29.755Z,102500.34
2017-10-26T11:39:58.068Z,102502.02
2017-10-26T11:42:26.380Z,102500.32
2017-10-26T11:44:54.695Z,102509.78
2017-10-26T11:47:23.007Z,102507.22
2017-10-26T11:49:51.326Z,102511.13
2017-10-26T11:52:19.635Z,102506.17
2017-10-26T11:54:48.024Z,102503.36
2017-10-26T11:57:17.144Z,102500.86
2017-10-26T11:59:45.469Z,102503.25
2017-10-26T12:02:13.788Z,102504.40
2017-10-26T12:04:42.892Z,102500.77
2017-10-26T12:07:11.976Z,102503.78
2017-10-26T12:09:41.063Z,102501.15
2017-10-26T12:12:09.380Z,102497.03
2017-10-26T12:14:38.512Z,102492.05
2017-10-26T12:17:06.858Z,102491.39
2017-10-26T12:19:35.936Z,102495.66
2017-10-26T12:22:05.050Z,102499.27
2017-10-26T12:24:34.159Z,102495.83
2017-10-26T12:27:03.286Z,102500.20
2017-10-26T12:29:31.623Z,102509.77
2017-10-26T12:31:59.946Z,102507.51
2017-10-26T12:34:28.275Z,102513.33
2017-10-26T12:36:56.605Z,102505.87
2017-10-26T12:39:24.952Z,102506.28
2017-10-26T12:41:54.056Z,102501.61
2017-10-26T12:44:23.133Z,102501.81
2017-10-26T12:46:51.455Z,102504.51
2017-10-26T12:49:19.773Z,102504.92
2017-10-26T12:51:48.103Z,102508.77
2017-10-26T12:54:17.212Z,102518.22
2017-10-26T12:56:45.530Z,102520.09
2017-10-26T12:59:13.892Z,102516.27
2017-10-26T13:01:42.990Z,102519.88
2017-10-26T13:04:11.283Z,102510.44
2017-10-26T13:06:39.619Z,102513.14
2017-10-26T13:09:08.752Z,102489.88
2017-10-26T13:11:37.054Z,102479.58
2017-10-26T13:14:05.385Z,102471.05
2017-10-26T13:16:34.482Z,102464.84
2017-10-26T13:19:03.582Z,102470.23
2017-10-26T13:21:32.673Z,102473.55
2017-10-26T13:24:01.012Z,102479.68
2017-10-26T13:26:29.363Z,102473.46
2017-10-26T13:28:58.101Z,102471.26
2017-10-26T13:31:26.600Z,102483.30
2017-10-26T13:33:54.904Z,102479.66
2017-10-26T13:36:24.001Z,102477.81
2017-10-26T13:38:52.358Z,102467.32
2017-10-26T13:41:20.672Z,102460.56
2017-10-26T13:43:49.762Z,102469.06
2017-10-26T13:46:18.854Z,102480.91
2017-10-26T13:48:47.220Z,102489.51
2017-10-26T13:51:15.560Z,102485.15
2017-10-26T13:53:43.880Z,102485.03
2017-10-26T13:56:12.201Z,102491.27
2017-10-26T13:58:40.533Z,102483.78
2017-10-26T14:01:08.848Z,102488.87
2017-10-26T14:03:37.163Z,102482.02
2017-10-26T14:06:05.490Z,102480.70
2017-10-26T14:08:33.830Z,102473.03
2017-10-26T14:11:02.154Z,102460.59
2017-10-26T14:13:30.435Z,102458.48
2017-10-26T14:15:58.811Z,102461.09
2017-10-26T14:18:27.255Z,102459.66
2017-10-26T14:20:55.557Z,102465.47
2017-10-26T14:23:23.875Z,102471.27
2017-10-26T14:25:52.196Z,102457.33
2017-10-26T14:28:20.513Z,102469.56
2017-10-26T14:30:48.840Z,102475.05
2017-10-26T14:33:17.938Z,102486.05
2017-10-26T14:35:47.017Z,102484.69
2017-10-26T14:38:15.331Z,102482.39
2017-10-26T14:40:43.651Z,102495.75
2017-10-26T14:43:11.975Z,102489.44
2017-10-26T14:45:41.080Z,102488.58
2017-10-26T14:48:10.153Z,102483.16
2017-10-26T14:50:38.472Z,102476.20
2017-10-26T14:53:06.809Z,102479.22
2017-10-26T14:55:35.119Z,102480.77
2017-10-26T14:58:04.221Z,102470.72
2017-10-26T15:00:32.553Z,102462.53
2017-10-26T15:03:00.904Z,102468.23
2017-10-26T15:05:29.237Z,102468.95
2017-10-26T15:07:58.066Z,102464.39
2017-10-26T15:10:26.403Z,102463.78
2017-10-26T15:12:54.711Z,102470.81
2017-10-26T15:15:23.785Z,102471.24
2017-10-26T15:17:52.113Z,102480.97
2017-10-26T15:20:20.427Z,102484.70
2017-10-26T15:22:48.749Z,102478.06
2017-10-26T15:25:17.102Z,102478.33
2017-10-26T15:27:45.449Z,102463.72
2017-10-26T15:30:13.772Z,102458.35
2017-10-26T15:32:42.095Z,102469.75
2017-10-26T15:35:11.176Z,102464.34
2017-10-26T15:37:40.248Z,102473.05
2017-10-26T15:40:08.569Z,102459.95
2017-10-26T15:42:36.911Z,102453.39
2017-10-26T15:45:05.243Z,102462.31
2017-10-26T15:47:33.563Z,102464.17
2017-10-26T15:50:01.889Z,102475.66
2017-10-26T15:52:30.988Z,102486.77
2017-10-26T15:55:00.085Z,102493.28
2017-10-26T15:57:29.169Z,102498.64
2017-10-26T15:59:57.480Z,102500.67
2017-10-26T16:02:25.804Z,102498.91
2017-10-26T16:04:54.123Z,102496.51
2017-10-26T16:07:24.055Z,102498.56
2017-10-26T16:09:52.402Z,102488.81
2017-10-26T16:12:20.731Z,102490.45
2017-10-26T16:14:49.038Z,102491.16
2017-10-26T16:17:17.374Z,102498.09
2017-10-26T16:19:46.484Z,102492.67
2017-10-26T16:22:14.797Z,102484.14
2017-10-26T16:24:43.133Z,102478.30
2017-10-26T16:27:12.214Z,102470.00
2017-10-26T16:29:41.340Z,102473.11
2017-10-26T16:32:10.416Z,102481.93
2017-10-26T16:34:38.741Z,102483.27
2017-10-26T16:37:07.057Z,102494.66
2017-10-26T16:39:35.380Z,102499.40
2017-10-26T16:42:06.324Z,102488.18
2017-10-26T16:44:34.872Z,102496.32
2017-10-26T16:47:03.216Z,102488.63
2017-10-26T16:49:31.540Z,102486.73
2017-10-26T16:51:59.881Z,102483.91
2017-10-26T16:54:28.906Z,102486.50
2017-10-26T16:56:57.240Z,102494.16
2017-10-26T16:59:25.629Z,102482.47
2017-10-26T17:01:53.936Z,102459.39
2017-10-26T17:04:22.246Z,102453.20
2017-10-26T17:06:50.561Z,102449.77
2017-10-26T17:09:18.915Z,102453.78
2017-10-26T17:11:48.038Z,102449.61
2017-10-26T17:14:16.461Z,102455.19
2017-10-26T17:16:44.889Z,102459.41
2017-10-26T17:19:14.803Z,102469.31
2017-10-26T17:21:44.277Z,102462.45
2017-10-26T17:24:13.762Z,102462.03
2017-10-26T17:26:42.322Z,102453.92
2017-10-26T17:29:10.672Z,102455.13
2017-10-26T17:31:38.987Z,102451.98
2017-10-26T17:34:08.077Z,102446.60
2017-10-26T17:36:37.169Z,102446.79
2017-10-26T17:39:05.526Z,102455.28
2017-10-26T17:41:35.333Z,102467.06
2017-10-26T17:44:03.640Z,102470.27
2017-10-26T17:46:32.000Z,102475.14
2017-10-26T17:49:01.062Z,102472.09
2017-10-26T17:51:30.454Z,102477.24
2017-10-26T17:53:58.772Z,102480.02
2017-10-26T17:56:27.122Z,102493.58
2017-10-26T17:58:55.441Z,102487.25
2017-10-26T18:01:23.841Z,102490.78
2017-10-26T18:03:52.148Z,102486.05
2017-10-26T18:06:21.340Z,102489.95
2017-10-26T18:08:50.324Z,102479.00
2017-10-26T18:11:18.634Z,102472.97
2017-10-26T18:13:47.720Z,102480.11
2017-10-26T18:16:16.036Z,102487.58
2017-10-26T18:18:44.346Z,102481.45
2017-10-26T18:21:12.675Z,102484.15
2017-10-26T18:23:41.771Z,102476.17
2017-10-26T18:26:10.132Z,102481.36
2017-10-26T18:28:38.448Z,102487.06
2017-10-26T18:31:06.822Z,102493.16
2017-10-26T18:33:35.896Z,102482.71
2017-10-26T18:36:04.222Z,102489.81
2017-10-26T18:38:32.535Z,102484.90
2017-10-26T18:41:00.915Z,102484.86
2017-10-26T18:43:29.222Z,102482.16
2017-10-26T18:45:57.556Z,102492.88
2017-10-26T18:48:25.891Z,102489.44
2017-10-26T18:50:54.215Z,102476.18
2017-10-26T18:53:22.526Z,102470.16
2017-10-26T18:55:50.832Z,102467.55
2017-10-26T18:58:19.165Z,102467.96
2017-10-26T19:00:47.512Z,102476.87
2017-10-26T19:03:16.583Z,102483.59
2017-10-26T19:05:44.904Z,102490.41
2017-10-26T19:08:13.240Z,102485.44
2017-10-26T19:10:41.557Z,102475.30
2017-10-26T19:13:10.641Z,102476.28
2017-10-26T19:15:39.743Z,102480.58
2017-10-26T19:18:08.846Z,102475.22
2017-10-26T19:20:37.943Z,102482.91
2017-10-26T19:23:07.054Z,102483.61
2017-10-26T19:25:36.121Z,102500.67
2017-10-26T19:28:04.479Z,102495.52
2017-10-26T19:30:32.798Z,102488.56
2017-10-26T19:33:01.116Z,102480.41
2017-10-26T19:35:29.453Z,102486.95
2017-10-26T19:37:57.776Z,102489.87
2017-10-26T19:40:26.094Z,102502.62
2017-10-26T19:42:54.392Z,102497.05
2017-10-26T19:45:22.723Z,102496.87
2017-10-26T19:47:51.052Z,102490.66
2017-10-26T19:50:19.382Z,102486.39
2017-10-26T19:52:47.692Z,102484.95
2017-10-26T19:55:16.024Z,102499.74
2017-10-26T19:57:44.378Z,102488.98
2017-10-26T20:00:12.675Z,102490.23
2017-10-26T20:02:40.994Z,102492.19
2017-10-26T20:05:09.290Z,102486.48
2017-10-26T20:07:37.754Z,102488.98
2017-10-26T20:10:06.083Z,102490.84
2017-10-26T20:12:34.419Z,102491.03
2017-10-26T20:15:02.759Z,102496.45
2017-10-26T20:17:31.886Z,102498.30
2017-10-26T20:20:01.011Z,102490.33
2017-10-26T20:22:29.334Z,102489.91
2017-10-26T20:24:57.668Z,102500.38
2017-10-26T20:27:26.000Z,102511.41
2017-10-26T20:29:54.310Z,102504.31
2017-10-26T20:32:23.464Z,102504.73
2017-10-26T20:34:51.802Z,102513.22
2017-10-26T20:37:20.119Z,102508.16
2017-10-26T20:39:48.468Z,102502.88
2017-10-26T20:42:16.779Z,102501.21
2017-10-26T20:44:45.081Z,102507.70
2017-10-26T20:47:13.430Z,102513.35
2017-10-26T20:49:47.225Z,102507.87
2017-10-26T20:52:20.966Z,102505.03
2017-10-26T20:54:54.699Z,102505.22
2017-10-26T20:57:29.256Z,102505.82
2017-10-26T21:03:06.155Z,102501.05
2017-10-26T21:05:39.901Z,102506.84
2017-10-26T21:08:08.224Z,102499.80
2017-10-26T21:10:41.998Z,102497.70
2017-10-26T21:13:16.680Z,102492.66
2017-10-26T21:15:44.995Z,102493.72
2017-10-26T21:18:14.104Z,102495.91
2017-10-26T21:20:43.183Z,102490.53
2017-10-26T21:23:11.524Z,102486.08
2017-10-26T21:25:39.839Z,102482.55
2017-10-26T21:28:08.163Z,102482.05
2017-10-26T21:30:36.503Z,102475.66
2017-10-26T21:33:04.828Z,102476.91
2017-10-26T21:35:33.134Z,102476.06
2017-10-26T21:38:01.426Z,102469.95
2017-10-26T21:40:29.773Z,102470.78
2017-10-26T21:42:58.104Z,102475.66
2017-10-26T21:45:26.445Z,102475.97
2017-10-26T21:47:54.742Z,102478.94
2017-10-26T21:50:23.053Z,102469.58
2017-10-26T21:52:51.364Z,102479.22
2017-10-26T21:55:20.447Z,102478.06
2017-10-26T21:57:49.529Z,102473.61
2017-10-26T22:00:17.880Z,102484.87
2017-10-26T22:02:46.199Z,102489.62
2017-10-26T22:05:14.530Z,102482.16
2017-10-26T22:07:42.851Z,102484.02
2017-10-26T22:10:11.174Z,102478.31
2017-10-26T22:12:40.278Z,102480.31
2017-10-26T22:15:08.613Z,102488.05
2017-10-26T22:17:36.922Z,102484.62
2017-10-26T22:20:06.013Z,102487.16
2017-10-26T22:22:34.329Z,102474.47
2017-10-26T22:25:02.660Z,102477.48
2017-10-26T22:27:30.978Z,102480.17
2017-10-26T22:30:00.039Z,102475.62
2017-10-26T22:32:28.333Z,102481.75
2017-10-26T22:34:56.674Z,102481.66
2017-10-26T22:37:25.044Z,102481.56
2017-10-26T22:39:53.344Z,102477.39
2017-10-26T22:42:21.653Z,102479.84
2017-10-26T22:44:49.962Z,102485.73
2017-10-26T22:47:19.597Z,102483.41
2017-10-26T22:49:47.921Z,102487.11
2017-10-26T22:52:16.233Z,102481.83
2017-10-26T22:54:44.617Z,102483.27
2017-10-26T22:57:12.963Z,102479.74
2017-10-26T22:59:41.290Z,102491.00
2017-10-26T23:02:09.611Z,102491.92
2017-10-26T23:04:37.933Z,102485.62
2017-10-26T23:07:07.069Z,102490.58
2017-10-26T23:09:35.377Z,102491.22
2017-10-26T23:12:03.680Z,102492.83
2017-10-26T23:14:31.992Z,102489.91
2017-10-26T23:17:00.293Z,102495.38
2017-10-26T23:19:28.611Z,102492.83
2017-10-26T23:21:56.925Z,102500.66
2017-10-26T23:24:25.250Z,102505.47
2017-10-26T23:26:53.539Z,102499.45
2017-10-26T23:29:21.867Z,102502.73
2017-10-26T23:31:50.945Z,102492.58
2017-10-26T23:34:19.243Z,102499.90
2017-10-26T23:36:48.339Z,102508.50
2017-10-26T23:39:17.423Z,102503.84
2017-10-26T23:41:45.749Z,102500.23
2017-10-26T23:44:14.136Z,102489.57
2017-10-26T23:46:42.474Z,102497.22
2017-10-26T23:49:10.796Z,102493.72
2017-10-26T23:51:39.109Z,102493.16
2017-10-26T23:54:07.562Z,102498.30
2017-10-26T23:56:35.943Z,102498.06
2017-10-26T23:59:04.293Z,102510.24
